createdAt,value
2018-02-11T00:00:04.697Z,167.6631
2018-02-11T00:01:10.639Z,166.9021
2018-02-11T00:02:16.119Z,167.1557
2018-02-11T00:03:21.586Z,167.8322
2018-02-11T00:04:42.077Z,168.3395
2018-02-11T00:05:47.547Z,168.5932
2018-02-11T00:06:53.269Z,168.5932
2018-02-11T00:07:58.738Z,168.3395
2018-02-11T00:09:03.917Z,168.0858
2018-02-11T00:10:10.209Z,168.5932
2018-02-11T00:11:15.694Z,169.0159
2018-02-11T00:12:21.169Z,169.0159
2018-02-11T00:13:40.963Z,169.0159
2018-02-11T00:14:46.431Z,169.5233
2018-02-11T00:15:52.280Z,169.5233
2018-02-11T00:16:57.454Z,169.5233
2018-02-11T00:18:02.934Z,169.5233
2018-02-11T00:19:08.907Z,169.5233
2018-02-11T00:20:13.813Z,170.0332
2018-02-11T00:21:18.708Z,170.7942
2018-02-11T00:22:24.470Z,171.217
2018-02-11T00:23:29.970Z,170.9633
2018-02-11T00:24:35.709Z,170.5406
2018-02-11T00:25:40.888Z,171.8934
2018-02-11T00:26:46.357Z,171.4707
2018-02-11T00:27:51.847Z,172.4008
2018-02-11T00:28:57.310Z,172.1471
2018-02-11T00:30:02.488Z,171.6398
2018-02-11T00:31:08.325Z,173.1617
2018-02-11T00:32:13.512Z,172.6544
2018-02-11T00:33:18.998Z,172.1471
2018-02-11T00:34:24.760Z,172.6544
2018-02-11T00:35:29.640Z,173.1617
2018-02-11T00:36:35.173Z,172.4008
2018-02-11T00:37:40.652Z,172.9081
2018-02-11T00:38:45.860Z,172.1471
2018-02-11T00:39:51.292Z,173.418
2018-02-11T00:40:56.765Z,173.9254
2018-02-11T00:42:02.233Z,173.418
2018-02-11T00:43:07.257Z,173.6717
2018-02-11T00:44:12.451Z,174.0945
2018-02-11T00:45:17.630Z,173.1617
2018-02-11T00:46:23.226Z,173.8408
2018-02-11T00:47:28.445Z,173.6717
2018-02-11T00:48:34.275Z,173.6717
2018-02-11T00:49:39.752Z,173.6717
2018-02-11T00:50:45.231Z,173.6717
2018-02-11T00:51:50.738Z,173.418
2018-02-11T00:52:56.196Z,174.0945
2018-02-11T00:54:01.669Z,174.0945
2018-02-11T00:55:07.645Z,174.3481
2018-02-11T00:56:13.112Z,174.6018
2018-02-11T00:57:18.284Z,174.8555
2018-02-11T00:58:23.949Z,174.0945
2018-02-11T00:59:29.141Z,175.1091
2018-02-11T01:00:35.094Z,175.3628
2018-02-11T01:01:40.574Z,175.3628
2018-02-11T01:02:45.761Z,175.3628
2018-02-11T01:03:51.483Z,175.1091
2018-02-11T01:04:56.949Z,176.1264
2018-02-11T01:06:02.404Z,176.1264
2018-02-11T01:07:07.561Z,176.1264
2018-02-11T01:08:13.068Z,177.3102
2018-02-11T01:09:18.265Z,176.3801
2018-02-11T01:10:24.092Z,176.1264
2018-02-11T01:11:28.721Z,175.6191
2018-02-11T01:12:34.251Z,177.5665
2018-02-11T01:13:39.716Z,177.3102
2018-02-11T01:14:44.606Z,176.5492
2018-02-11T01:15:50.329Z,177.5665
2018-02-11T01:16:55.508Z,177.0565
2018-02-11T01:18:00.409Z,178.0738
2018-02-11T01:19:06.085Z,178.8348
2018-02-11T01:20:11.560Z,179.0039
2018-02-11T01:21:17.041Z,178.8348
2018-02-11T01:22:22.772Z,179.0039
2018-02-11T01:23:27.395Z,179.0039
2018-02-11T01:24:32.374Z,180.2749
2018-02-11T01:25:37.575Z,178.8348
2018-02-11T01:26:43.045Z,180.2749
2018-02-11T01:27:48.371Z,179.2602
2018-02-11T01:28:53.278Z,180.0212
2018-02-11T01:29:58.768Z,181.2922
2018-02-11T01:31:04.487Z,181.0385
2018-02-11T01:32:09.705Z,180.7822
2018-02-11T01:33:15.205Z,181.0385
2018-02-11T01:34:21.032Z,181.7149
2018-02-11T01:35:25.965Z,181.4613
2018-02-11T01:36:31.137Z,182.4786
2018-02-11T01:37:36.608Z,181.2922
2018-02-11T01:38:42.077Z,180.7822
2018-02-11T01:39:47.797Z,181.4613
2018-02-11T01:40:53.265Z,181.9686
2018-02-11T01:41:58.147Z,181.9686
2018-02-11T01:43:03.867Z,181.0385
2018-02-11T01:44:08.780Z,182.7322
2018-02-11T01:45:14.254Z,181.7149
2018-02-11T01:46:19.989Z,183.4087
2018-02-11T01:47:25.455Z,182.7322
2018-02-11T01:48:31.010Z,182.9013
2018-02-11T01:49:36.501Z,183.9186
2018-02-11T01:50:41.951Z,183.665
2018-02-11T01:51:47.819Z,184.0877
2018-02-11T01:52:53.305Z,183.8341
2018-02-11T01:53:58.485Z,184.0877
2018-02-11T01:55:03.942Z,185.866
2018-02-11T01:56:09.400Z,185.866
2018-02-11T01:57:14.871Z,185.6124
2018-02-11T01:58:20.782Z,184.5951
2018-02-11T01:59:25.684Z,186.5451
2018-02-11T02:00:30.848Z,186.5451
2018-02-11T02:01:36.373Z,185.866
2018-02-11T02:02:41.555Z,186.1197
2018-02-11T02:03:47.491Z,186.1197
2018-02-11T02:04:52.702Z,185.866
2018-02-11T02:05:57.885Z,186.1197
2018-02-11T02:07:03.871Z,187.0524
2018-02-11T02:08:09.349Z,186.376
2018-02-11T02:09:14.267Z,188.0697
2018-02-11T02:10:19.697Z,187.5624
2018-02-11T02:11:24.605Z,187.5624
2018-02-11T02:12:30.137Z,188.8333
2018-02-11T02:13:35.311Z,188.3234
2018-02-11T02:14:40.810Z,188.5797
2018-02-11T02:15:46.423Z,189.0024
2018-02-11T02:16:51.616Z,188.5797
2018-02-11T02:17:57.088Z,189.5124
2018-02-11T02:19:02.707Z,188.8333
2018-02-11T02:20:07.324Z,189.5124
2018-02-11T02:21:12.773Z,189.5124
2018-02-11T02:22:18.498Z,189.5124
2018-02-11T02:23:23.721Z,189.7661
2018-02-11T02:24:29.580Z,191.037
2018-02-11T02:25:34.763Z,190.5297
2018-02-11T02:26:39.963Z,190.5297
2018-02-11T02:27:45.686Z,190.5297
2018-02-11T02:28:51.147Z,190.5297
2018-02-11T02:29:56.102Z,190.5297
2018-02-11T02:31:01.811Z,191.6316
2018-02-11T02:32:07.274Z,191.8852
2018-02-11T02:33:12.175Z,191.6316
2018-02-11T02:34:17.768Z,191.037
2018-02-11T02:35:22.964Z,191.6316
2018-02-11T02:36:28.926Z,192.6488
2018-02-11T02:37:34.462Z,191.8852
2018-02-11T02:38:39.916Z,191.8852
2018-02-11T02:39:45.622Z,192.9025
2018-02-11T02:40:50.811Z,192.1389
2018-02-11T02:41:56.002Z,192.9025
2018-02-11T02:43:01.877Z,192.3952
2018-02-11T02:44:06.773Z,192.3952
2018-02-11T02:45:12.254Z,192.6488
2018-02-11T02:46:17.695Z,193.4125
2018-02-11T02:47:23.160Z,193.6661
2018-02-11T02:48:28.951Z,192.6488
2018-02-11T02:49:34.152Z,193.9198
2018-02-11T02:50:39.326Z,194.3452
2018-02-11T02:51:45.042Z,194.3452
2018-02-11T02:52:50.506Z,194.5989
2018-02-11T02:53:55.970Z,195.1088
2018-02-11T02:55:01.443Z,195.1088
2018-02-11T02:56:06.927Z,195.3625
2018-02-11T02:57:12.396Z,195.6162
2018-02-11T02:58:18.086Z,196.6361
2018-02-11T02:59:23.293Z,196.3798
2018-02-11T03:00:28.936Z,196.5516
2018-02-11T03:01:34.385Z,195.8725
2018-02-11T03:02:39.865Z,195.8725
2018-02-11T03:03:45.722Z,196.1261
2018-02-11T03:04:51.189Z,196.8052
2018-02-11T03:05:56.668Z,195.6162
2018-02-11T03:07:02.404Z,196.1261
2018-02-11T03:08:07.601Z,196.1261
2018-02-11T03:09:13.117Z,196.6361
2018-02-11T03:10:18.979Z,196.1261
2018-02-11T03:11:24.470Z,196.6361
2018-02-11T03:12:30.083Z,196.6361
2018-02-11T03:13:35.001Z,197.5688
2018-02-11T03:14:40.501Z,198.0762
2018-02-11T03:15:46.175Z,198.5016
2018-02-11T03:16:51.652Z,199.6906
2018-02-11T03:17:57.128Z,200.4543
2018-02-11T03:19:03.063Z,200.7079
2018-02-11T03:20:08.236Z,200.7079
2018-02-11T03:21:13.407Z,200.9616
2018-02-11T03:22:19.122Z,201.4716
2018-02-11T03:23:24.585Z,201.6407
2018-02-11T03:24:29.844Z,201.897
2018-02-11T03:25:35.315Z,202.6606
2018-02-11T03:26:40.496Z,202.6606
2018-02-11T03:27:46.315Z,203.1679
2018-02-11T03:28:51.786Z,203.4242
2018-02-11T03:29:57.267Z,204.1033
2018-02-11T03:31:02.706Z,205.1206
2018-02-11T03:32:07.941Z,204.6133
2018-02-11T03:33:13.417Z,204.357
2018-02-11T03:34:19.134Z,204.8669
2018-02-11T03:35:24.657Z,205.6306
2018-02-11T03:36:29.847Z,206.1405
2018-02-11T03:37:35.047Z,206.1405
2018-02-11T03:38:40.258Z,206.3942
2018-02-11T03:39:45.973Z,206.8196
2018-02-11T03:40:51.438Z,207.5832
2018-02-11T03:41:56.636Z,207.5832
2018-02-11T03:43:02.282Z,207.0733
2018-02-11T03:44:07.765Z,208.0932
2018-02-11T03:45:13.249Z,208.3495
2018-02-11T03:46:18.841Z,209.1131
2018-02-11T03:47:23.463Z,209.7922
2018-02-11T03:48:29.018Z,209.5386
2018-02-11T03:49:34.482Z,209.3668
2018-02-11T03:50:39.941Z,209.3668
2018-02-11T03:51:45.527Z,210.2176
2018-02-11T03:52:51.005Z,210.2176
2018-02-11T03:53:56.498Z,210.9813
2018-02-11T03:55:02.207Z,210.0459
2018-02-11T03:56:07.379Z,210.7276
2018-02-11T03:57:12.874Z,210.9813
2018-02-11T03:58:18.055Z,211.4912
2018-02-11T03:59:22.946Z,211.9166
2018-02-11T04:00:28.592Z,211.4912
2018-02-11T04:01:34.057Z,211.2376
2018-02-11T04:02:39.548Z,212.1703
2018-02-11T04:03:45.282Z,213.3593
2018-02-11T04:04:50.498Z,213.6156
2018-02-11T04:05:55.981Z,214.1256
2018-02-11T04:07:01.414Z,213.6156
2018-02-11T04:08:06.583Z,214.551
2018-02-11T04:09:12.048Z,214.8047
2018-02-11T04:10:17.770Z,215.3147
2018-02-11T04:11:22.961Z,214.8047
2018-02-11T04:12:28.016Z,215.3147
2018-02-11T04:13:32.911Z,216.5909
2018-02-11T04:14:38.385Z,215.8246
2018-02-11T04:15:44.118Z,217.27
2018-02-11T04:16:49.590Z,216.3346
2018-02-11T04:17:54.488Z,216.3346
2018-02-11T04:19:00.034Z,216.8446
2018-02-11T04:20:05.220Z,215.571
2018-02-11T04:21:09.566Z,217.0137
2018-02-11T04:22:15.301Z,216.5909
2018-02-11T04:23:20.211Z,217.27
2018-02-11T04:24:40.812Z,217.27
2018-02-11T04:25:46.002Z,218.5436
2018-02-11T04:26:51.499Z,219.0562
2018-02-11T04:27:57.240Z,219.0562
2018-02-11T04:29:02.715Z,219.7353
2018-02-11T04:30:07.890Z,219.5635
2018-02-11T04:31:13.707Z,219.479
2018-02-11T04:32:19.196Z,219.3098
2018-02-11T04:33:25.609Z,219.3098
2018-02-11T04:34:31.073Z,219.3098
2018-02-11T04:35:36.542Z,219.479
2018-02-11T04:36:42.358Z,220.2452
2018-02-11T04:37:47.849Z,219.9889
2018-02-11T04:38:53.042Z,220.5015
2018-02-11T04:39:58.372Z,220.5015
2018-02-11T04:41:03.554Z,220.5015
2018-02-11T04:42:08.174Z,220.5015
2018-02-11T04:43:13.608Z,221.0115
2018-02-11T04:44:18.792Z,221.7751
2018-02-11T04:46:44.705Z,221.7751
2018-02-11T04:47:49.052Z,222.2005
2018-02-11T04:48:54.988Z,222.7105
2018-02-11T04:50:00.503Z,223.2205
2018-02-11T04:51:05.392Z,224.4967
2018-02-11T04:52:10.281Z,224.5813
2018-02-11T04:53:15.171Z,224.4967
2018-02-11T04:54:20.652Z,223.9868
2018-02-11T04:55:26.097Z,224.2431
2018-02-11T04:56:31.282Z,224.8376
2018-02-11T04:57:37.219Z,225.0939
2018-02-11T04:58:42.155Z,224.4122
2018-02-11T04:59:47.345Z,224.8376
2018-02-11T05:00:53.074Z,224.5813
2018-02-11T05:01:58.250Z,223.9868
2018-02-11T05:03:03.449Z,224.5813
2018-02-11T05:04:09.001Z,224.8376
2018-02-11T05:05:14.666Z,225.0939
2018-02-11T05:06:19.868Z,224.8376
2018-02-11T05:07:24.460Z,225.0939
2018-02-11T05:08:29.374Z,226.1138
2018-02-11T05:09:35.336Z,226.1138
2018-02-11T05:10:40.788Z,226.1138
2018-02-11T05:11:45.730Z,226.3675
2018-02-11T05:12:51.318Z,225.6039
2018-02-11T05:13:56.492Z,227.0492
2018-02-11T05:15:01.948Z,226.8801
2018-02-11T05:16:07.580Z,227.5592
2018-02-11T05:17:12.775Z,227.3055
2018-02-11T05:18:18.242Z,227.5592
2018-02-11T05:19:23.647Z,227.8155
2018-02-11T05:20:28.806Z,228.0691
2018-02-11T05:21:34.444Z,228.5817
2018-02-11T05:22:39.660Z,227.5592
2018-02-11T05:23:45.135Z,228.0691
2018-02-11T05:24:50.291Z,228.0691
2018-02-11T05:25:55.773Z,228.5817
2018-02-11T05:27:01.264Z,228.8354
2018-02-11T05:28:06.030Z,229.0917
2018-02-11T05:29:11.507Z,228.8354
2018-02-11T05:30:16.978Z,228.8354
2018-02-11T05:31:22.695Z,228.8354
2018-02-11T05:32:27.599Z,229.348
2018-02-11T05:33:33.381Z,228.8354
2018-02-11T05:34:38.550Z,228.8354
2018-02-11T05:35:43.748Z,228.8354
2018-02-11T05:36:49.321Z,230.5371
2018-02-11T05:37:54.223Z,230.0271
2018-02-11T05:38:59.433Z,230.2834
2018-02-11T05:40:04.681Z,229.7734
2018-02-11T05:41:09.930Z,230.7934
2018-02-11T05:42:15.119Z,231.3033
2018-02-11T05:43:20.858Z,231.3033
2018-02-11T05:44:25.487Z,231.0497
2018-02-11T05:45:30.937Z,231.3033
2018-02-11T05:46:36.396Z,231.5596
2018-02-11T05:47:41.856Z,231.3033
2018-02-11T05:48:47.685Z,231.8159
2018-02-11T05:49:53.170Z,232.2414
2018-02-11T05:50:58.648Z,233.0076
2018-02-11T05:52:04.078Z,233.2613
2018-02-11T05:53:08.983Z,233.0076
2018-02-11T05:54:14.172Z,233.0076
2018-02-11T05:55:19.643Z,233.2613
2018-02-11T05:56:24.606Z,233.5176
2018-02-11T05:57:30.174Z,234.453
2018-02-11T05:58:35.630Z,233.7739
2018-02-11T05:59:40.805Z,234.9656
2018-02-11T06:00:46.712Z,234.9656
2018-02-11T06:01:52.181Z,234.2839
2018-02-11T06:02:57.349Z,234.7093
2018-02-11T06:04:02.785Z,236.1573
2018-02-11T06:05:07.962Z,235.901
2018-02-11T06:06:13.452Z,235.391
2018-02-11T06:07:19.269Z,235.901
2018-02-11T06:08:24.453Z,234.2839
2018-02-11T06:09:30.080Z,235.6473
2018-02-11T06:10:35.550Z,235.391
2018-02-11T06:11:41.018Z,235.6473
2018-02-11T06:12:47.233Z,236.1573
2018-02-11T06:13:52.719Z,236.1573
2018-02-11T06:14:58.192Z,234.7093
2018-02-11T06:16:03.394Z,235.391
2018-02-11T06:17:08.855Z,235.6473
2018-02-11T06:18:14.314Z,235.6473
2018-02-11T06:19:19.903Z,235.391
2018-02-11T06:20:25.390Z,234.9656
2018-02-11T06:21:30.818Z,235.6473
2018-02-11T06:22:36.278Z,235.6473
2018-02-11T06:23:41.222Z,236.4136
2018-02-11T06:24:46.410Z,236.4136
2018-02-11T06:25:51.897Z,236.6673
2018-02-11T06:26:56.802Z,236.4136
2018-02-11T06:28:02.263Z,237.349
2018-02-11T06:29:07.436Z,236.9236
2018-02-11T06:30:12.646Z,236.1573
2018-02-11T06:31:18.464Z,237.8616
2018-02-11T06:32:23.952Z,238.3715
2018-02-11T06:33:29.094Z,238.8815
2018-02-11T06:34:34.283Z,238.3715
2018-02-11T06:35:39.765Z,238.3715
2018-02-11T06:36:45.697Z,238.1152
2018-02-11T06:37:51.189Z,237.8616
2018-02-11T06:38:56.080Z,238.3715
2018-02-11T06:40:01.578Z,238.3715
2018-02-11T06:41:07.062Z,238.3715
2018-02-11T06:42:11.957Z,239.3069
2018-02-11T06:43:17.606Z,238.8815
2018-02-11T06:44:23.078Z,239.1378
2018-02-11T06:45:28.848Z,239.8195
2018-02-11T06:46:34.337Z,239.9886
2018-02-11T06:47:39.799Z,239.3941
2018-02-11T06:48:45.497Z,239.1378
2018-02-11T06:49:50.402Z,239.3069
2018-02-11T06:50:55.923Z,239.8195
2018-02-11T06:52:01.465Z,240.2449
2018-02-11T06:53:06.674Z,239.3069
2018-02-11T06:54:11.587Z,239.8195
2018-02-11T06:55:17.011Z,240.7576
2018-02-11T06:56:22.475Z,240.2449
2018-02-11T06:57:27.973Z,241.0112
2018-02-11T06:58:33.472Z,240.7576
2018-02-11T06:59:38.946Z,240.5013
2018-02-11T07:00:44.819Z,240.7576
2018-02-11T07:01:50.309Z,240.7576
2018-02-11T07:02:55.772Z,240.7576
2018-02-11T07:04:01.307Z,241.2675
2018-02-11T07:05:06.503Z,240.5013
2018-02-11T07:06:11.993Z,239.9886
2018-02-11T07:07:17.813Z,241.2675
2018-02-11T07:08:23.382Z,241.2675
2018-02-11T07:09:29.114Z,240.2449
2018-02-11T07:10:34.607Z,240.7576
2018-02-11T07:11:39.791Z,239.9886
2018-02-11T07:12:45.550Z,240.7576
2018-02-11T07:13:51.023Z,240.7576
2018-02-11T07:14:56.479Z,240.7576
2018-02-11T07:16:02.291Z,241.7775
2018-02-11T07:17:06.904Z,241.7775
2018-02-11T07:18:12.385Z,241.7775
2018-02-11T07:19:18.104Z,241.2675
2018-02-11T07:20:23.328Z,242.2056
2018-02-11T07:21:29.296Z,243.7381
2018-02-11T07:22:34.779Z,243.2281
2018-02-11T07:23:39.696Z,242.2056
2018-02-11T07:24:45.683Z,242.2056
2018-02-11T07:25:51.154Z,242.4619
2018-02-11T07:26:56.635Z,241.7775
2018-02-11T07:28:01.862Z,242.0338
2018-02-11T07:29:07.070Z,242.0338
2018-02-11T07:30:11.982Z,241.7775
2018-02-11T07:31:17.774Z,242.0338
2018-02-11T07:32:23.239Z,241.2675
2018-02-11T07:33:28.764Z,241.2675
2018-02-11T07:34:34.242Z,241.5238
2018-02-11T07:35:39.418Z,241.7775
2018-02-11T07:36:45.152Z,241.7775
2018-02-11T07:37:50.058Z,242.2056
2018-02-11T07:38:54.669Z,241.7775
2018-02-11T07:40:00.120Z,242.4619
2018-02-11T07:41:05.591Z,242.4619
2018-02-11T07:42:10.790Z,242.2056
2018-02-11T07:43:16.229Z,242.2056
2018-02-11T07:44:21.698Z,242.4619
2018-02-11T07:45:27.581Z,242.4619
2018-02-11T07:46:33.250Z,241.7775
2018-02-11T07:47:38.732Z,242.4619
2018-02-11T07:48:44.303Z,242.0338
2018-02-11T07:49:49.485Z,242.7155
2018-02-11T07:50:54.969Z,242.4619
2018-02-11T07:52:00.661Z,241.7775
2018-02-11T07:53:05.282Z,241.7775
2018-02-11T07:54:10.475Z,242.4619
2018-02-11T07:55:16.251Z,242.7155
2018-02-11T07:56:21.442Z,242.7155
2018-02-11T07:57:27.730Z,242.0338
2018-02-11T07:58:33.201Z,242.0338
2018-02-11T07:59:38.103Z,243.2281
2018-02-11T08:00:43.329Z,242.0338
2018-02-11T08:01:48.530Z,242.9718
2018-02-11T08:02:53.729Z,242.0338
2018-02-11T08:03:59.685Z,242.0338
2018-02-11T08:05:05.136Z,241.7775
2018-02-11T08:06:09.214Z,243.2281
2018-02-11T08:07:14.932Z,243.2281
2018-02-11T08:08:19.300Z,242.7155
2018-02-11T08:10:44.519Z,242.7155
2018-02-11T08:11:49.153Z,241.7775
2018-02-11T08:12:54.644Z,243.7381
2018-02-11T08:14:00.108Z,242.7155
2018-02-11T08:15:05.361Z,243.2281
2018-02-11T08:16:11.074Z,244.2507
2018-02-11T08:17:16.264Z,243.2281
2018-02-11T08:18:21.150Z,243.9944
2018-02-11T08:19:41.542Z,243.7381
2018-02-11T08:20:47.063Z,243.2281
2018-02-11T08:21:52.785Z,244.4198
2018-02-11T08:22:57.988Z,244.9324
2018-02-11T08:24:03.465Z,243.2281
2018-02-11T08:25:08.894Z,243.9944
2018-02-11T08:26:14.369Z,243.4844
2018-02-11T08:27:19.831Z,243.2281
2018-02-11T08:28:25.468Z,244.2507
2018-02-11T08:29:30.948Z,244.6761
2018-02-11T08:30:36.717Z,243.9944
2018-02-11T08:31:42.218Z,245.1861
2018-02-11T08:32:47.711Z,244.9324
2018-02-11T08:33:53.051Z,245.6987
2018-02-11T08:34:58.507Z,245.6987
2018-02-11T08:36:03.435Z,245.955
2018-02-11T08:37:09.368Z,245.4424
2018-02-11T08:38:14.538Z,245.1861
2018-02-11T08:39:20.016Z,245.4424
2018-02-11T08:40:25.549Z,244.6761
2018-02-11T08:41:31.024Z,243.9944
2018-02-11T08:42:36.948Z,245.1861
2018-02-11T08:43:42.423Z,244.6761
2018-02-11T08:44:47.910Z,245.4424
2018-02-11T08:45:53.619Z,244.6761
2018-02-11T08:46:58.798Z,244.9324
2018-02-11T08:48:04.261Z,245.1861
2018-02-11T08:49:10.018Z,245.6987
2018-02-11T08:50:15.486Z,245.1861
2018-02-11T08:51:20.401Z,244.507
2018-02-11T08:52:26.106Z,245.4424
2018-02-11T08:53:31.568Z,244.507
2018-02-11T08:54:36.693Z,243.9944
2018-02-11T08:55:42.187Z,243.9944
2018-02-11T08:56:47.385Z,243.4844
2018-02-11T08:57:52.977Z,244.507
2018-02-11T08:58:58.152Z,242.7155
2018-02-11T09:00:03.061Z,243.7381
2018-02-11T09:01:08.221Z,244.507
2018-02-11T09:02:13.697Z,244.507
2018-02-11T09:03:18.624Z,243.4844
2018-02-11T09:04:24.520Z,244.2507
2018-02-11T09:05:29.990Z,243.2281
2018-02-11T09:06:35.897Z,242.7155
2018-02-11T09:07:41.380Z,242.7155
2018-02-11T09:08:46.855Z,244.2507
2018-02-11T09:09:52.621Z,243.9944
2018-02-11T09:10:58.106Z,244.2507
2018-02-11T09:12:03.292Z,243.2281
2018-02-11T09:13:08.151Z,243.4844
2018-02-11T09:14:13.620Z,242.7155
2018-02-11T09:15:19.118Z,244.6761
2018-02-11T09:16:24.940Z,242.7155
2018-02-11T09:17:30.419Z,243.9944
2018-02-11T09:18:36.222Z,242.9718
2018-02-11T09:19:41.695Z,244.2507
2018-02-11T09:20:46.615Z,243.4844
2018-02-11T09:21:52.294Z,243.9944
2018-02-11T09:22:57.763Z,244.2507
2018-02-11T09:24:03.267Z,244.2507
2018-02-11T09:25:08.205Z,243.2281
2018-02-11T09:26:13.388Z,243.9944
2018-02-11T09:27:18.560Z,244.2507
2018-02-11T09:28:23.593Z,244.2507
2018-02-11T09:29:29.054Z,243.7381
2018-02-11T09:30:34.654Z,244.2507
2018-02-11T09:31:40.111Z,244.2507
2018-02-11T09:32:45.662Z,244.507
2018-02-11T09:33:50.828Z,245.1861
2018-02-11T09:34:56.021Z,244.2507
2018-02-11T09:36:01.220Z,244.2507
2018-02-11T09:37:07.036Z,243.9944
2018-02-11T09:38:12.233Z,244.2507
2018-02-11T09:39:17.452Z,243.7381
2018-02-11T09:40:23.106Z,243.9944
2018-02-11T09:41:28.024Z,243.7381
2018-02-11T09:42:33.898Z,244.2507
2018-02-11T09:43:39.104Z,243.2281
2018-02-11T09:44:44.598Z,244.2507
2018-02-11T09:45:50.368Z,243.2281
2018-02-11T09:46:55.562Z,244.2507
2018-02-11T09:48:01.034Z,243.2281
2018-02-11T09:49:06.246Z,243.7381
2018-02-11T09:50:11.714Z,244.4198
2018-02-11T09:51:17.192Z,243.4844
2018-02-11T09:52:23.006Z,243.9944
2018-02-11T09:53:28.460Z,244.4198
2018-02-11T09:54:33.886Z,242.9718
2018-02-11T09:55:39.074Z,244.4198
2018-02-11T09:56:44.532Z,243.7381
2018-02-11T09:57:49.970Z,243.4844
2018-02-11T09:58:55.151Z,242.4619
2018-02-11T10:00:00.340Z,243.2281
2018-02-11T10:01:05.379Z,243.2281
2018-02-11T10:02:09.999Z,242.7155
2018-02-11T10:03:15.464Z,243.2281
2018-02-11T10:04:21.156Z,243.7381
2018-02-11T10:05:26.633Z,243.7381
2018-02-11T10:06:32.345Z,244.507
2018-02-11T10:07:37.530Z,243.4844
2018-02-11T10:08:42.991Z,244.2507
2018-02-11T10:09:48.912Z,244.2507
2018-02-11T10:10:54.376Z,243.9944
2018-02-11T10:11:59.858Z,243.7381
2018-02-11T10:13:05.286Z,243.2281
2018-02-11T10:14:10.478Z,243.7381
2018-02-11T10:15:15.962Z,244.4198
2018-02-11T10:16:21.106Z,242.4619
2018-02-11T10:17:26.309Z,243.4844
2018-02-11T10:18:31.940Z,242.7155
2018-02-11T10:19:37.411Z,244.4198
2018-02-11T10:20:42.905Z,243.7381
2018-02-11T10:21:48.665Z,243.7381
2018-02-11T10:22:54.152Z,243.7381
2018-02-11T10:23:59.061Z,243.4844
2018-02-11T10:25:04.595Z,243.9944
2018-02-11T10:26:10.063Z,243.9944
2018-02-11T10:27:15.541Z,244.4198
2018-02-11T10:28:21.282Z,243.9944
2018-02-11T10:29:26.762Z,243.4844
2018-02-11T10:30:32.013Z,243.9944
2018-02-11T10:31:37.262Z,243.2281
2018-02-11T10:32:42.448Z,243.2281
2018-02-11T10:33:48.345Z,242.2056
2018-02-11T10:34:53.524Z,242.2056
2018-02-11T10:35:58.701Z,244.2507
2018-02-11T10:37:03.975Z,242.4619
2018-02-11T10:38:09.454Z,243.4844
2018-02-11T10:39:14.951Z,242.7155
2018-02-11T10:40:20.773Z,242.9718
2018-02-11T10:41:26.244Z,243.4844
2018-02-11T10:42:31.883Z,243.4844
2018-02-11T10:43:37.053Z,242.9718
2018-02-11T10:44:41.982Z,243.4844
2018-02-11T10:45:47.332Z,243.2281
2018-02-11T10:46:52.528Z,242.7155
2018-02-11T10:47:58.027Z,241.7775
2018-02-11T10:49:03.752Z,242.4619
2018-02-11T10:50:09.238Z,242.0338
2018-02-11T10:51:14.135Z,242.0338
2018-02-11T10:52:19.578Z,242.7155
2018-02-11T10:53:25.054Z,242.2056
2018-02-11T10:54:30.745Z,241.2675
2018-02-11T10:55:35.923Z,241.7775
2018-02-11T10:56:41.390Z,241.9492
2018-02-11T10:57:47.286Z,241.7775
2018-02-11T10:58:52.469Z,241.9492
2018-02-11T10:59:57.669Z,241.2675
2018-02-11T11:01:03.345Z,241.2675
2018-02-11T11:02:08.533Z,240.2449
2018-02-11T11:03:13.458Z,241.2675
2018-02-11T11:04:18.855Z,241.5238
2018-02-11T11:05:24.322Z,241.5238
2018-02-11T11:06:29.797Z,241.2675
2018-02-11T11:07:35.094Z,243.2281
2018-02-11T11:08:39.941Z,241.7775
2018-02-11T11:09:45.886Z,241.5238
2018-02-11T11:10:51.346Z,241.2675
2018-02-11T11:11:56.532Z,242.0338
2018-02-11T11:13:02.251Z,241.2675
2018-02-11T11:14:07.445Z,241.2675
2018-02-11T11:15:12.909Z,242.2056
2018-02-11T11:16:18.623Z,241.7775
2018-02-11T11:17:23.818Z,242.2056
2018-02-11T11:18:29.613Z,241.7775
2018-02-11T11:19:35.078Z,241.7775
2018-02-11T11:20:40.251Z,241.7775
2018-02-11T11:21:45.684Z,242.2056
2018-02-11T11:22:50.583Z,241.2675
2018-02-11T11:23:55.779Z,242.0338
2018-02-11T11:25:01.743Z,241.7775
2018-02-11T11:26:07.215Z,242.9718
2018-02-11T11:27:12.164Z,242.7155
2018-02-11T11:28:17.596Z,243.2281
2018-02-11T11:29:22.504Z,242.4619
2018-02-11T11:30:27.812Z,241.7775
2018-02-11T11:31:33.291Z,241.7775
2018-02-11T11:32:38.183Z,242.2056
2018-02-11T11:33:43.893Z,242.2056
2018-02-11T11:34:49.369Z,242.4619
2018-02-11T11:35:54.843Z,241.2675
2018-02-11T11:37:00.373Z,242.0338
2018-02-11T11:38:05.543Z,242.4619
2018-02-11T11:39:10.602Z,243.2281
2018-02-11T11:40:16.079Z,242.7155
2018-02-11T11:41:21.012Z,242.7155
2018-02-11T11:42:41.297Z,243.2281
2018-02-11T11:43:46.225Z,242.7155
2018-02-11T11:44:51.159Z,242.7155
2018-02-11T11:45:56.586Z,242.4619
2018-02-11T11:47:01.766Z,242.4619
2018-02-11T11:48:06.093Z,242.7155
2018-02-11T11:49:11.536Z,242.7155
2018-02-11T11:50:16.165Z,242.4619
2018-02-11T11:51:21.681Z,243.2281
2018-02-11T11:52:41.462Z,243.2281
2018-02-11T11:53:46.943Z,242.2901
2018-02-11T11:54:52.555Z,242.7155
2018-02-11T11:55:57.456Z,242.2901
2018-02-11T11:57:02.919Z,243.2281
2018-02-11T11:58:08.218Z,242.7155
2018-02-11T11:59:13.124Z,242.2901
2018-02-11T12:00:18.595Z,242.4619
2018-02-11T12:01:24.507Z,243.2281
2018-02-11T12:02:30.020Z,243.4844
2018-02-11T12:03:35.467Z,242.0338
2018-02-11T12:04:40.367Z,242.4619
2018-02-11T12:05:45.539Z,242.0338
2018-02-11T12:06:50.989Z,243.2281
2018-02-11T12:07:56.467Z,243.7381
2018-02-11T12:09:01.384Z,242.4619
2018-02-11T12:10:05.992Z,242.9718
2018-02-11T12:11:10.872Z,243.4844
2018-02-11T12:12:15.228Z,242.9718
2018-02-11T12:13:20.768Z,242.2901
2018-02-11T12:14:25.690Z,242.7155
2018-02-11T12:15:31.613Z,242.9718
2018-02-11T12:16:37.090Z,242.9718
2018-02-11T12:17:42.287Z,243.4844
2018-02-11T12:18:48.284Z,243.2281
2018-02-11T12:19:53.192Z,243.2281
2018-02-11T12:20:58.689Z,243.7381
2018-02-11T12:22:03.915Z,244.2507
2018-02-11T12:23:08.584Z,245.6987
2018-02-11T12:24:13.782Z,245.017
2018-02-11T12:25:18.919Z,245.017
2018-02-11T12:26:23.812Z,244.2507
2018-02-11T12:27:29.362Z,244.7607
2018-02-11T12:28:34.265Z,245.017
2018-02-11T12:29:39.765Z,244.7607
2018-02-11T12:30:45.279Z,243.9944
2018-02-11T12:31:50.469Z,243.7381
2018-02-11T12:32:55.931Z,243.9944
2018-02-11T12:34:01.664Z,245.017
2018-02-11T12:35:06.873Z,244.2507
2018-02-11T12:36:11.793Z,243.7381
2018-02-11T12:37:16.394Z,245.017
2018-02-11T12:38:21.941Z,245.4424
2018-02-11T12:39:27.860Z,244.7607
2018-02-11T12:40:33.523Z,244.507
2018-02-11T12:41:38.980Z,244.7607
2018-02-11T12:42:44.313Z,245.017
2018-02-11T12:43:49.712Z,245.6987
2018-02-11T12:44:54.884Z,245.6987
2018-02-11T12:46:00.051Z,245.1861
2018-02-11T12:47:04.980Z,244.7607
2018-02-11T12:48:09.623Z,245.4424
2018-02-11T12:49:15.065Z,244.9324
2018-02-11T12:50:20.537Z,244.7607
2018-02-11T12:51:40.632Z,244.507
2018-02-11T12:52:46.104Z,243.9944